createdAt,value
2023-05-19T00:02:56.861Z,100.00
2023-05-19T00:06:07.063Z,100.00
2023-05-19T00:09:16.829Z,100.00
2023-05-19T00:12:25.401Z,99.95
2023-05-19T00:15:33.829Z,99.50
2023-05-19T00:18:42.262Z,100.00
2023-05-19T00:21:50.786Z,99.72
2023-05-19T00:25:12.849Z,98.96
2023-05-19T00:28:29.138Z,97.69
2023-05-19T00:31:43.831Z,97.77
2023-05-19T00:34:58.858Z,97.70
2023-05-19T00:38:08.934Z,97.81
2023-05-19T00:41:18.584Z,97.88
2023-05-19T00:44:26.875Z,98.77
2023-05-19T00:47:41.832Z,98.75
2023-05-19T00:50:50.845Z,98.94
2023-05-19T00:53:59.534Z,98.73
2023-05-19T00:57:10.224Z,98.96
2023-05-19T01:00:21.609Z,98.93
2023-05-19T01:03:38.255Z,98.65
2023-05-19T01:06:40.458Z,99.18
2023-05-19T01:09:55.923Z,99.82
2023-05-19T01:13:11.858Z,100.00
2023-05-19T01:16:33.827Z,100.00
2023-05-19T01:20:21.863Z,100.00
2023-05-19T01:23:58.824Z,100.00
2023-05-19T01:27:30.898Z,100.00
2023-05-19T01:30:49.383Z,100.00
2023-05-19T01:33:53.226Z,100.00
2023-05-19T01:37:09.034Z,100.00
2023-05-19T01:40:11.495Z,100.00
2023-05-19T01:43:30.864Z,100.00
2023-05-19T01:46:32.511Z,100.00
2023-05-19T01:49:46.886Z,100.00
2023-05-19T01:52:48.661Z,100.00
2023-05-19T01:56:06.094Z,100.00
2023-05-19T01:59:23.842Z,100.00
2023-05-19T02:03:01.916Z,100.00
2023-05-19T02:06:23.060Z,100.00
2023-05-19T02:10:08.159Z,100.00
2023-05-19T02:13:19.981Z,100.00
2023-05-19T02:16:35.881Z,100.00
2023-05-19T02:19:46.084Z,100.00
2023-05-19T02:22:54.926Z,100.00
2023-05-19T02:26:17.919Z,100.00
2023-05-19T02:29:32.905Z,100.00
2023-05-19T02:32:41.892Z,100.00
2023-05-19T02:35:57.193Z,100.00
2023-05-19T02:39:14.919Z,100.00
2023-05-19T02:42:43.849Z,100.00
2023-05-19T02:45:53.710Z,100.00
2023-05-19T02:49:02.096Z,100.00
2023-05-19T02:52:16.917Z,100.00
2023-05-19T02:55:19.702Z,100.00
2023-05-19T02:58:37.778Z,100.00
2023-05-19T03:01:45.910Z,100.00
2023-05-19T03:04:54.883Z,100.00
2023-05-19T03:08:10.918Z,100.00
2023-05-19T03:11:18.907Z,100.00
2023-05-19T03:14:34.066Z,100.00
2023-05-19T03:17:36.052Z,100.00
2023-05-19T03:20:51.643Z,100.00
2023-05-19T03:24:12.938Z,100.00
2023-05-19T03:27:27.938Z,100.00
2023-05-19T03:30:44.199Z,100.00
2023-05-19T03:33:48.957Z,100.00
2023-05-19T03:37:03.989Z,100.00
2023-05-19T03:40:06.500Z,100.00
2023-05-19T03:43:20.918Z,100.00
2023-05-19T03:46:28.946Z,100.00
2023-05-19T03:49:44.024Z,100.00
2023-05-19T03:52:51.925Z,100.00
2023-05-19T03:56:00.681Z,100.00
2023-05-19T03:59:15.970Z,100.00
2023-05-19T04:02:17.638Z,100.00
2023-05-19T04:05:31.987Z,100.00
2023-05-19T04:08:33.764Z,100.00
2023-05-19T04:11:49.966Z,100.00
2023-05-19T04:15:05.630Z,100.00
2023-05-19T04:18:07.315Z,100.00
2023-05-19T04:21:22.055Z,100.00
2023-05-19T04:24:37.158Z,100.00
2023-05-19T04:27:44.945Z,100.00
2023-05-19T04:30:56.511Z,100.00
2023-05-19T04:34:10.947Z,100.00
2023-05-19T04:37:13.306Z,100.00
2023-05-19T04:40:27.941Z,100.00
2023-05-19T04:43:35.978Z,99.56
2023-05-19T04:46:44.667Z,99.12
2023-05-19T04:49:52.941Z,98.45
2023-05-19T04:53:08.030Z,98.21
2023-05-19T04:56:17.280Z,97.69
2023-05-19T04:59:25.502Z,97.25
2023-05-19T05:02:34.364Z,96.70
2023-05-19T05:05:43.471Z,96.55
2023-05-19T05:08:52.018Z,95.93
2023-05-19T05:12:11.094Z,95.81
2023-05-19T05:15:22.153Z,95.07
2023-05-19T05:18:37.028Z,94.60
2023-05-19T05:21:45.723Z,93.91
2023-05-19T05:25:01.375Z,93.24
2023-05-19T05:28:10.281Z,93.38
2023-05-19T05:31:18.555Z,93.33
2023-05-19T05:34:27.011Z,92.12
2023-05-19T05:37:45.296Z,90.72
2023-05-19T05:40:53.998Z,90.16
2023-05-19T05:44:02.880Z,89.63
2023-05-19T05:47:23.046Z,88.99
2023-05-19T05:50:32.080Z,89.73
2023-05-19T05:53:59.099Z,89.80
2023-05-19T05:57:16.102Z,90.04
2023-05-19T06:00:21.688Z,90.01
2023-05-19T06:03:36.011Z,90.00
2023-05-19T06:06:38.497Z,90.60
2023-05-19T06:09:53.009Z,90.10
2023-05-19T06:13:09.023Z,90.33
2023-05-19T06:16:24.075Z,89.46
2023-05-19T06:19:34.428Z,88.59
2023-05-19T06:22:45.213Z,87.02
2023-05-19T06:26:08.377Z,84.90
2023-05-19T06:29:27.221Z,83.76
2023-05-19T06:32:35.726Z,80.13
2023-05-19T06:35:44.033Z,79.00
2023-05-19T06:38:55.444Z,78.77
2023-05-19T06:42:04.325Z,80.55
2023-05-19T06:45:13.519Z,78.82
2023-05-19T06:48:54.852Z,79.24
2023-05-19T06:52:12.433Z,78.63
2023-05-19T06:55:15.366Z,77.62
2023-05-19T06:58:43.281Z,77.36
2023-05-19T07:01:57.809Z,75.38
2023-05-19T07:05:12.051Z,74.91
2023-05-19T07:08:29.657Z,74.33
2023-05-19T07:11:37.837Z,73.97
2023-05-19T07:15:06.039Z,74.60
2023-05-19T07:18:15.783Z,73.12
2023-05-19T07:21:34.032Z,71.89
2023-05-19T07:24:52.347Z,71.18
2023-05-19T07:35:14.483Z,70.61
2023-05-19T07:38:23.129Z,70.66
2023-05-19T07:41:34.218Z,71.02
2023-05-19T07:44:44.661Z,69.87
2023-05-19T07:48:01.050Z,69.16
2023-05-19T07:51:16.102Z,68.60
2023-05-19T07:54:26.175Z,68.08
2023-05-19T07:57:37.667Z,67.92
2023-05-19T08:00:58.338Z,67.18
2023-05-19T08:04:07.724Z,67.24
2023-05-19T08:07:18.129Z,66.07
2023-05-19T08:10:27.666Z,64.80
2023-05-19T08:13:36.104Z,64.94
2023-05-19T08:16:59.438Z,64.38
2023-05-19T08:20:16.165Z,64.08
2023-05-19T08:23:18.245Z,64.68
2023-05-19T08:26:36.906Z,64.68
2023-05-19T08:33:16.369Z,63.26
2023-05-19T08:36:18.626Z,61.95
2023-05-19T08:39:33.191Z,62.22
2023-05-19T08:42:41.982Z,60.79
2023-05-19T08:45:59.128Z,60.95
2023-05-19T08:49:07.773Z,60.17
2023-05-19T08:52:32.087Z,59.87
2023-05-19T08:56:02.133Z,59.25
2023-05-19T08:59:06.240Z,60.59
2023-05-19T09:02:24.664Z,60.80
2023-05-19T09:09:04.404Z,64.28
2023-05-19T09:12:24.388Z,64.15
2023-05-19T09:15:42.163Z,65.37
2023-05-19T09:19:05.172Z,65.54
2023-05-19T09:22:15.885Z,65.65
2023-05-19T09:25:27.134Z,65.44
2023-05-19T09:32:27.927Z,65.58
2023-05-19T09:35:36.202Z,64.82
2023-05-19T09:38:46.427Z,63.66
2023-05-19T09:42:02.194Z,58.12
2023-05-19T09:45:15.511Z,45.03
2023-05-19T09:48:28.319Z,45.73
2023-05-19T09:51:51.067Z,52.65
2023-05-19T09:55:19.917Z,44.20
2023-05-19T09:58:51.391Z,42.86
2023-05-19T10:01:55.122Z,51.28
2023-05-19T10:08:29.552Z,58.42
2023-05-19T10:15:03.585Z,43.99
2023-05-19T10:18:22.552Z,46.08
2023-05-19T10:21:31.192Z,46.75
2023-05-19T10:24:45.200Z,49.03
2023-05-19T10:28:00.207Z,49.18
2023-05-19T10:31:28.195Z,53.37
2023-05-19T10:35:19.279Z,55.73
2023-05-19T10:38:37.959Z,54.85
2023-05-19T10:42:09.256Z,56.41
2023-05-19T10:45:29.185Z,58.37
2023-05-19T10:48:44.246Z,52.66
2023-05-19T10:52:02.213Z,54.52
2023-05-19T10:55:13.877Z,56.35
2023-05-19T10:58:46.516Z,44.72
2023-05-19T11:02:02.533Z,46.46
2023-05-19T11:05:15.355Z,48.80
2023-05-19T11:12:08.449Z,37.96
2023-05-19T11:15:17.311Z,35.85
2023-05-19T11:18:27.249Z,34.67
2023-05-19T11:21:58.636Z,39.00
2023-05-19T11:25:07.343Z,44.69
2023-05-19T11:28:28.438Z,47.08
2023-05-19T11:31:44.304Z,48.34
2023-05-19T11:34:54.813Z,50.46
2023-05-19T11:38:10.197Z,49.83
2023-05-19T11:41:25.249Z,50.08
2023-05-19T11:44:34.289Z,48.25
2023-05-19T11:48:00.245Z,46.94
2023-05-19T11:51:17.226Z,48.08
2023-05-19T11:54:25.704Z,48.22
2023-05-19T11:57:33.733Z,48.39
2023-05-19T12:00:46.439Z,49.56
2023-05-19T12:04:01.578Z,49.81
2023-05-19T12:07:18.233Z,48.81
2023-05-19T12:10:28.394Z,51.59
2023-05-19T12:13:37.282Z,52.00
2023-05-19T12:16:53.370Z,52.36
2023-05-19T12:19:55.295Z,50.95
2023-05-19T12:23:11.386Z,50.88
2023-05-19T12:26:13.622Z,50.63
2023-05-19T12:29:28.308Z,49.98
2023-05-19T12:32:43.744Z,50.09
2023-05-19T12:35:54.295Z,50.61
2023-05-19T12:39:06.425Z,49.73
2023-05-19T12:42:15.262Z,49.34
2023-05-19T12:45:26.374Z,49.68
2023-05-19T12:48:41.568Z,50.91
2023-05-19T12:52:01.142Z,51.90
2023-05-19T12:55:18.581Z,51.42
2023-05-19T12:58:26.363Z,51.22
2023-05-19T13:01:43.350Z,50.12
2023-05-19T13:04:58.304Z,50.76
2023-05-19T13:08:08.606Z,48.42
2023-05-19T13:11:17.260Z,48.77
2023-05-19T13:14:25.863Z,47.90
2023-05-19T13:17:34.601Z,48.78
2023-05-19T13:20:44.583Z,48.91
2023-05-19T13:23:53.662Z,48.88
2023-05-19T13:27:08.303Z,50.04
2023-05-19T13:30:21.195Z,50.29
2023-05-19T13:33:36.330Z,50.16
2023-05-19T13:36:38.082Z,50.98
2023-05-19T13:39:52.496Z,51.00
2023-05-19T13:43:00.630Z,50.83
2023-05-19T13:46:15.420Z,47.80
2023-05-19T13:49:17.159Z,46.33
2023-05-19T13:52:33.346Z,47.30
2023-05-19T13:55:41.359Z,46.97
2023-05-19T13:58:50.093Z,46.21
2023-05-19T14:02:04.551Z,45.33
2023-05-19T14:05:13.311Z,44.26
2023-05-19T14:08:28.359Z,46.71
2023-05-19T14:11:36.868Z,49.02
2023-05-19T14:14:45.353Z,49.69
2023-05-19T14:18:00.363Z,47.37
2023-05-19T14:21:09.449Z,46.18
2023-05-19T14:24:24.337Z,45.34
2023-05-19T14:27:41.059Z,46.90
2023-05-19T14:30:55.350Z,48.72
2023-05-19T14:34:17.456Z,49.10
2023-05-19T14:37:19.856Z,48.13
2023-05-19T14:40:34.603Z,47.56
2023-05-19T14:43:36.478Z,46.62
2023-05-19T14:46:51.509Z,46.93
2023-05-19T14:50:00.771Z,47.67
2023-05-19T14:53:10.631Z,48.74
2023-05-19T14:56:22.558Z,49.52
2023-05-19T14:59:30.885Z,49.37
2023-05-19T15:02:39.452Z,49.62
2023-05-19T15:05:54.471Z,49.21
2023-05-19T15:09:02.663Z,49.87
2023-05-19T15:12:11.146Z,50.23
2023-05-19T15:15:19.328Z,49.86
2023-05-19T15:18:35.403Z,48.14
2023-05-19T15:21:45.786Z,47.15
2023-05-19T15:24:54.694Z,46.75
2023-05-19T15:28:19.613Z,48.27
2023-05-19T15:31:37.407Z,46.60
2023-05-19T15:34:46.841Z,47.55
2023-05-19T15:38:02.484Z,48.00
2023-05-19T15:41:13.438Z,47.81
2023-05-19T15:44:29.124Z,48.21
2023-05-19T15:47:36.958Z,48.60
2023-05-19T15:50:51.415Z,49.21
2023-05-19T15:53:53.425Z,49.42
2023-05-19T15:57:09.453Z,49.69
2023-05-19T16:00:18.426Z,49.54
2023-05-19T16:03:27.459Z,50.38
2023-05-19T16:06:42.429Z,49.57
2023-05-19T16:09:51.254Z,49.61
2023-05-19T16:12:59.401Z,49.82
2023-05-19T16:16:14.510Z,50.24
2023-05-19T16:19:24.343Z,50.20
2023-05-19T16:22:33.490Z,50.42
2023-05-19T16:25:48.462Z,50.39
2023-05-19T16:29:03.419Z,51.38
2023-05-19T16:32:12.900Z,51.13
2023-05-19T16:35:32.707Z,51.48
2023-05-19T16:38:48.461Z,51.22
2023-05-19T16:42:07.330Z,51.33
2023-05-19T16:45:22.477Z,52.66
2023-05-19T16:48:27.182Z,53.59
2023-05-19T16:51:41.485Z,53.50
2023-05-19T16:54:59.614Z,53.69
2023-05-19T16:58:02.488Z,54.12
2023-05-19T17:01:29.045Z,53.80
2023-05-19T17:04:31.073Z,54.20
2023-05-19T17:07:45.693Z,54.22
2023-05-19T17:11:01.542Z,54.70
2023-05-19T17:14:03.573Z,54.47
2023-05-19T17:17:18.429Z,55.42
2023-05-19T17:20:28.817Z,55.33
2023-05-19T17:23:43.571Z,55.82
2023-05-19T17:26:52.279Z,56.32
2023-05-19T17:30:07.725Z,56.44
2023-05-19T17:33:15.864Z,57.06
2023-05-19T17:36:49.493Z,57.78
2023-05-19T17:39:58.482Z,58.40
2023-05-19T17:43:06.983Z,58.40
2023-05-19T17:46:15.664Z,58.45
2023-05-19T17:49:30.681Z,58.28
2023-05-19T17:52:39.488Z,58.59
2023-05-19T17:55:58.507Z,58.97
2023-05-19T17:59:07.438Z,59.51
2023-05-19T18:02:16.249Z,59.82
2023-05-19T18:05:28.032Z,59.93
2023-05-19T18:08:43.521Z,60.32
2023-05-19T18:11:52.762Z,60.31
2023-05-19T18:15:01.280Z,60.94
2023-05-19T18:21:31.304Z,61.31
2023-05-19T18:24:47.024Z,62.04
2023-05-19T18:27:55.498Z,62.50
2023-05-19T18:31:17.606Z,63.27
2023-05-19T18:34:26.321Z,63.89
2023-05-19T18:37:41.490Z,64.30
2023-05-19T18:40:43.655Z,64.56
2023-05-19T18:43:59.568Z,64.99
2023-05-19T18:47:01.271Z,65.67
2023-05-19T18:50:16.657Z,66.56
2023-05-19T18:53:18.320Z,67.36
2023-05-19T18:56:34.502Z,67.41
2023-05-19T18:59:44.233Z,68.15
2023-05-19T19:02:52.520Z,68.40
2023-05-19T19:06:07.570Z,68.93
2023-05-19T19:09:10.273Z,70.24
2023-05-19T19:12:24.842Z,71.32
2023-05-19T19:15:45.220Z,71.81
2023-05-19T19:19:00.755Z,72.62
2023-05-19T19:22:09.808Z,73.93
2023-05-19T19:25:18.579Z,74.93
2023-05-19T19:28:36.194Z,76.01
2023-05-19T19:31:44.947Z,76.38
2023-05-19T19:35:06.530Z,77.40
2023-05-19T19:38:14.800Z,77.66
2023-05-19T19:41:29.589Z,78.32
2023-05-19T19:44:31.430Z,78.69
2023-05-19T19:47:46.913Z,79.02
2023-05-19T19:51:03.553Z,79.21
2023-05-19T19:54:11.977Z,79.41
2023-05-19T19:57:20.095Z,79.80
2023-05-19T20:03:57.728Z,79.95
2023-05-19T20:07:12.603Z,79.99
2023-05-19T20:10:16.542Z,79.98
2023-05-19T20:13:34.574Z,80.27
2023-05-19T20:16:36.444Z,80.16
2023-05-19T20:19:51.561Z,79.87
2023-05-19T20:22:59.694Z,79.87
2023-05-19T20:26:12.439Z,80.09
2023-05-19T20:29:21.840Z,80.20
2023-05-19T20:32:39.622Z,80.53
2023-05-19T20:35:54.553Z,80.84
2023-05-19T20:39:09.654Z,80.90
2023-05-19T20:42:24.583Z,81.59
2023-05-19T20:45:32.956Z,81.66
2023-05-19T20:48:42.177Z,82.22
2023-05-19T20:51:56.615Z,82.07
2023-05-19T20:54:59.639Z,82.50
2023-05-19T20:58:17.931Z,82.51
2023-05-19T21:01:32.669Z,82.52
2023-05-19T21:04:34.856Z,82.93
2023-05-19T21:07:49.629Z,83.19
2023-05-19T21:10:51.386Z,83.40
2023-05-19T21:14:17.923Z,83.78
2023-05-19T21:17:19.754Z,84.12
2023-05-19T21:20:34.869Z,84.94
2023-05-19T21:23:43.662Z,85.50
2023-05-19T21:26:52.090Z,85.57
2023-05-19T21:30:00.735Z,86.12
2023-05-19T21:33:16.272Z,86.40
2023-05-19T21:36:26.631Z,87.13
2023-05-19T21:39:41.634Z,87.29
2023-05-19T21:42:43.293Z,87.65
2023-05-19T21:45:57.654Z,87.90
2023-05-19T21:49:07.080Z,88.12
2023-05-19T21:52:17.958Z,88.35
2023-05-19T21:55:26.688Z,88.34
2023-05-19T21:58:43.614Z,88.27
2023-05-19T22:01:46.872Z,88.27
2023-05-19T22:05:16.663Z,88.42
2023-05-19T22:08:19.757Z,88.57
2023-05-19T22:11:34.641Z,89.11
2023-05-19T22:14:43.121Z,89.39
2023-05-19T22:17:51.728Z,89.82
2023-05-19T22:21:00.710Z,89.97
2023-05-19T22:24:08.655Z,90.22
2023-05-19T22:27:23.665Z,90.49
2023-05-19T22:30:37.661Z,90.74
2023-05-19T22:33:55.132Z,90.74
2023-05-19T22:37:09.828Z,90.74
2023-05-19T22:40:18.946Z,90.97
2023-05-19T22:43:27.101Z,91.03
2023-05-19T22:46:41.919Z,91.07
2023-05-19T22:49:43.752Z,91.25
2023-05-19T22:52:58.695Z,91.48
2023-05-19T22:56:06.686Z,91.77
2023-05-19T22:59:15.192Z,92.03
2023-05-19T23:02:23.689Z,92.04
2023-05-19T23:05:38.773Z,92.03
2023-05-19T23:08:41.274Z,92.01
2023-05-19T23:11:56.671Z,92.05
2023-05-19T23:14:58.629Z,92.32
2023-05-19T23:18:13.697Z,92.83
2023-05-19T23:21:15.325Z,92.52
2023-05-19T23:24:29.716Z,92.46
2023-05-19T23:27:37.708Z,92.36
2023-05-19T23:31:00.737Z,92.40
2023-05-19T23:34:15.734Z,92.12
2023-05-19T23:37:24.595Z,92.45
2023-05-19T23:40:33.475Z,92.79
2023-05-19T23:43:47.763Z,92.95
2023-05-19T23:46:55.770Z,93.44
2023-05-19T23:50:10.749Z,93.85
2023-05-19T23:53:12.458Z,94.14
2023-05-19T23:56:26.755Z,94.57
2023-05-19T23:59:34.709Z,94.93
